sensor_id;sensor_type;location;lat;lon;timestamp;temperature;humidity
18225;DHT22;9237;48.590;8.854;2023-06-22T00:01:16;19.90;99.90
18225;DHT22;9237;48.590;8.854;2023-06-22T00:03:43;19.80;99.90
18225;DHT22;9237;48.590;8.854;2023-06-22T00:06:09;19.80;99.90
18225;DHT22;9237;48.590;8.854;2023-06-22T00:08:36;19.70;99.90
18225;DHT22;9237;48.590;8.854;2023-06-22T00:11:04;19.60;99.90
18225;DHT22;9237;48.590;8.854;2023-06-22T00:13:31;19.60;99.90
18225;DHT22;9237;48.590;8.854;2023-06-22T00:15:58;19.50;99.90
18225;DHT22;9237;48.590;8.854;2023-06-22T00:18:25;19.30;99.90
18225;DHT22;9237;48.590;8.854;2023-06-22T00:20:54;19.20;99.90
18225;DHT22;9237;48.590;8.854;2023-06-22T00:23:23;19.30;99.90
18225;DHT22;9237;48.590;8.854;2023-06-22T00:25:51;19.40;99.90
18225;DHT22;9237;48.590;8.854;2023-06-22T00:28:19;19.50;99.90
18225;DHT22;9237;48.590;8.854;2023-06-22T00:30:47;19.70;99.90
18225;DHT22;9237;48.590;8.854;2023-06-22T00:33:14;19.40;99.90
18225;DHT22;9237;48.590;8.854;2023-06-22T00:35:41;19.50;99.90
18225;DHT22;9237;48.590;8.854;2023-06-22T00:38:08;19.40;99.90
18225;DHT22;9237;48.590;8.854;2023-06-22T00:40:35;19.30;99.90
18225;DHT22;9237;48.590;8.854;2023-06-22T00:43:02;19.30;99.90
18225;DHT22;9237;48.590;8.854;2023-06-22T00:45:31;19.30;99.90
18225;DHT22;9237;48.590;8.854;2023-06-22T00:47:58;19.40;99.90
18225;DHT22;9237;48.590;8.854;2023-06-22T00:50:27;19.20;99.90
18225;DHT22;9237;48.590;8.854;2023-06-22T00:52:56;19.20;99.90
18225;DHT22;9237;48.590;8.854;2023-06-22T00:55:24;19.20;99.90
18225;DHT22;9237;48.590;8.854;2023-06-22T00:57:51;19.20;99.90
18225;DHT22;9237;48.590;8.854;2023-06-22T01:00:21;19.30;99.90
18225;DHT22;9237;48.590;8.854;2023-06-22T01:02:51;19.30;99.90
18225;DHT22;9237;48.590;8.854;2023-06-22T01:05:19;19.20;99.90
18225;DHT22;9237;48.590;8.854;2023-06-22T01:07:56;19.50;99.90
18225;DHT22;9237;48.590;8.854;2023-06-22T01:10:30;19.30;99.90
18225;DHT22;9237;48.590;8.854;2023-06-22T01:13:02;19.70;99.90
18225;DHT22;9237;48.590;8.854;2023-06-22T01:15:35;19.10;99.90
18225;DHT22;9237;48.590;8.854;2023-06-22T01:18:05;19.10;99.90
18225;DHT22;9237;48.590;8.854;2023-06-22T01:20:34;19.10;99.90
18225;DHT22;9237;48.590;8.854;2023-06-22T01:23:09;19.00;99.90
18225;DHT22;9237;48.590;8.854;2023-06-22T01:25:45;19.00;99.90
18225;DHT22;9237;48.590;8.854;2023-06-22T01:28:29;18.80;99.90
18225;DHT22;9237;48.590;8.854;2023-06-22T01:30:58;18.80;99.90
18225;DHT22;9237;48.590;8.854;2023-06-22T01:33:34;18.70;99.90
18225;DHT22;9237;48.590;8.854;2023-06-22T01:36:02;18.70;99.90
18225;DHT22;9237;48.590;8.854;2023-06-22T01:38:30;18.60;99.90
18225;DHT22;9237;48.590;8.854;2023-06-22T01:40:58;18.60;99.90
18225;DHT22;9237;48.590;8.854;2023-06-22T01:43:27;18.50;99.90
18225;DHT22;9237;48.590;8.854;2023-06-22T01:45:56;18.50;99.90
18225;DHT22;9237;48.590;8.854;2023-06-22T01:48:23;18.50;99.90
18225;DHT22;9237;48.590;8.854;2023-06-22T01:50:51;18.50;99.90
18225;DHT22;9237;48.590;8.854;2023-06-22T01:53:18;18.50;99.90
18225;DHT22;9237;48.590;8.854;2023-06-22T01:55:46;18.50;99.90
18225;DHT22;9237;48.590;8.854;2023-06-22T01:58:13;18.60;99.90
18225;DHT22;9237;48.590;8.854;2023-06-22T02:00:43;18.50;99.90
18225;DHT22;9237;48.590;8.854;2023-06-22T02:03:16;18.60;99.90
18225;DHT22;9237;48.590;8.854;2023-06-22T02:05:50;18.60;99.90
18225;DHT22;9237;48.590;8.854;2023-06-22T02:08:21;18.50;99.90
18225;DHT22;9237;48.590;8.854;2023-06-22T02:10:49;18.50;99.90
18225;DHT22;9237;48.590;8.854;2023-06-22T02:13:17;18.50;99.90
18225;DHT22;9237;48.590;8.854;2023-06-22T02:15:45;18.50;99.90
18225;DHT22;9237;48.590;8.854;2023-06-22T02:18:14;18.50;99.90
18225;DHT22;9237;48.590;8.854;2023-06-22T02:20:41;18.50;99.90
18225;DHT22;9237;48.590;8.854;2023-06-22T02:23:08;18.60;99.90
18225;DHT22;9237;48.590;8.854;2023-06-22T02:25:35;18.60;99.90
18225;DHT22;9237;48.590;8.854;2023-06-22T02:28:03;18.60;99.90
18225;DHT22;9237;48.590;8.854;2023-06-22T02:30:31;18.60;99.90
18225;DHT22;9237;48.590;8.854;2023-06-22T02:32:58;18.60;99.90
18225;DHT22;9237;48.590;8.854;2023-06-22T02:35:26;18.60;99.90
18225;DHT22;9237;48.590;8.854;2023-06-22T02:37:57;18.60;99.90
18225;DHT22;9237;48.590;8.854;2023-06-22T02:40:25;18.60;99.90
18225;DHT22;9237;48.590;8.854;2023-06-22T02:42:51;18.60;99.90
18225;DHT22;9237;48.590;8.854;2023-06-22T02:45:18;18.50;99.90
18225;DHT22;9237;48.590;8.854;2023-06-22T02:47:45;18.50;99.90
18225;DHT22;9237;48.590;8.854;2023-06-22T02:50:13;18.50;99.90
18225;DHT22;9237;48.590;8.854;2023-06-22T02:52:41;18.50;99.90
18225;DHT22;9237;48.590;8.854;2023-06-22T02:55:08;18.50;99.90
18225;DHT22;9237;48.590;8.854;2023-06-22T02:57:35;18.50;99.90
18225;DHT22;9237;48.590;8.854;2023-06-22T03:00:03;18.50;99.90
18225;DHT22;9237;48.590;8.854;2023-06-22T03:02:42;18.50;99.90
18225;DHT22;9237;48.590;8.854;2023-06-22T03:05:08;18.50;99.90
18225;DHT22;9237;48.590;8.854;2023-06-22T03:07:44;18.50;99.90
18225;DHT22;9237;48.590;8.854;2023-06-22T03:10:11;18.50;99.90
18225;DHT22;9237;48.590;8.854;2023-06-22T03:12:39;18.50;99.90
18225;DHT22;9237;48.590;8.854;2023-06-22T03:15:08;18.50;99.90
18225;DHT22;9237;48.590;8.854;2023-06-22T03:17:35;18.40;99.90
18225;DHT22;9237;48.590;8.854;2023-06-22T03:20:04;18.40;99.90
18225;DHT22;9237;48.590;8.854;2023-06-22T03:22:34;18.40;99.90
18225;DHT22;9237;48.590;8.854;2023-06-22T03:25:03;18.30;99.90
18225;DHT22;9237;48.590;8.854;2023-06-22T03:27:29;18.20;99.90
18225;DHT22;9237;48.590;8.854;2023-06-22T03:29:57;18.10;99.90
18225;DHT22;9237;48.590;8.854;2023-06-22T03:32:24;18.10;99.90
18225;DHT22;9237;48.590;8.854;2023-06-22T03:34:53;18.10;99.90
18225;DHT22;9237;48.590;8.854;2023-06-22T03:37:24;18.10;99.90
18225;DHT22;9237;48.590;8.854;2023-06-22T03:39:51;18.00;99.90
18225;DHT22;9237;48.590;8.854;2023-06-22T03:42:19;18.00;99.90
18225;DHT22;9237;48.590;8.854;2023-06-22T03:44:46;17.90;99.90
18225;DHT22;9237;48.590;8.854;2023-06-22T03:47:13;17.90;99.90
18225;DHT22;9237;48.590;8.854;2023-06-22T03:49:40;17.90;99.90
18225;DHT22;9237;48.590;8.854;2023-06-22T03:52:07;17.70;99.90
18225;DHT22;9237;48.590;8.854;2023-06-22T03:54:36;17.70;99.90
18225;DHT22;9237;48.590;8.854;2023-06-22T03:57:03;17.60;99.90
18225;DHT22;9237;48.590;8.854;2023-06-22T03:59:31;17.60;99.90
18225;DHT22;9237;48.590;8.854;2023-06-22T04:01:59;17.60;99.90
18225;DHT22;9237;48.590;8.854;2023-06-22T04:04:25;17.70;99.90
18225;DHT22;9237;48.590;8.854;2023-06-22T04:06:53;17.80;99.90
18225;DHT22;9237;48.590;8.854;2023-06-22T04:09:20;17.90;99.90
18225;DHT22;9237;48.590;8.854;2023-06-22T04:11:47;18.00;99.90
18225;DHT22;9237;48.590;8.854;2023-06-22T04:14:14;18.10;99.90
18225;DHT22;9237;48.590;8.854;2023-06-22T04:16:42;18.10;99.90
18225;DHT22;9237;48.590;8.854;2023-06-22T04:19:09;18.10;99.90
18225;DHT22;9237;48.590;8.854;2023-06-22T04:21:41;18.20;99.90
18225;DHT22;9237;48.590;8.854;2023-06-22T04:24:08;18.30;99.90
18225;DHT22;9237;48.590;8.854;2023-06-22T04:26:35;18.30;99.90
18225;DHT22;9237;48.590;8.854;2023-06-22T04:29:03;18.40;99.90
18225;DHT22;9237;48.590;8.854;2023-06-22T04:31:31;18.40;99.90
18225;DHT22;9237;48.590;8.854;2023-06-22T04:34:04;18.40;99.90
18225;DHT22;9237;48.590;8.854;2023-06-22T04:36:34;18.50;99.90
18225;DHT22;9237;48.590;8.854;2023-06-22T04:39:04;18.50;99.90
18225;DHT22;9237;48.590;8.854;2023-06-22T04:41:31;18.70;99.90
18225;DHT22;9237;48.590;8.854;2023-06-22T04:44:07;18.80;99.90
18225;DHT22;9237;48.590;8.854;2023-06-22T04:46:34;18.90;99.90
18225;DHT22;9237;48.590;8.854;2023-06-22T04:49:05;19.00;99.90
18225;DHT22;9237;48.590;8.854;2023-06-22T04:51:39;19.10;99.90
18225;DHT22;9237;48.590;8.854;2023-06-22T04:54:06;19.20;99.90
18225;DHT22;9237;48.590;8.854;2023-06-22T04:56:33;19.30;99.90
18225;DHT22;9237;48.590;8.854;2023-06-22T04:59:00;19.40;99.90
18225;DHT22;9237;48.590;8.854;2023-06-22T05:01:28;19.50;99.90
18225;DHT22;9237;48.590;8.854;2023-06-22T05:03:56;19.60;99.90
18225;DHT22;9237;48.590;8.854;2023-06-22T05:06:28;19.80;99.90
18225;DHT22;9237;48.590;8.854;2023-06-22T05:08:56;20.00;99.90
18225;DHT22;9237;48.590;8.854;2023-06-22T05:11:24;20.20;99.90
18225;DHT22;9237;48.590;8.854;2023-06-22T05:13:51;20.50;99.90
18225;DHT22;9237;48.590;8.854;2023-06-22T05:16:18;20.80;99.90
18225;DHT22;9237;48.590;8.854;2023-06-22T05:18:50;21.00;99.90
18225;DHT22;9237;48.590;8.854;2023-06-22T05:21:17;21.10;99.90
18225;DHT22;9237;48.590;8.854;2023-06-22T05:23:46;21.20;99.90
18225;DHT22;9237;48.590;8.854;2023-06-22T05:26:12;21.40;99.90
18225;DHT22;9237;48.590;8.854;2023-06-22T05:28:39;21.50;99.90
18225;DHT22;9237;48.590;8.854;2023-06-22T05:31:06;21.70;99.90
18225;DHT22;9237;48.590;8.854;2023-06-22T05:33:32;21.50;99.90
18225;DHT22;9237;48.590;8.854;2023-06-22T05:35:59;21.60;99.90
18225;DHT22;9237;48.590;8.854;2023-06-22T05:38:26;21.50;99.90
18225;DHT22;9237;48.590;8.854;2023-06-22T05:40:54;21.60;99.90
18225;DHT22;9237;48.590;8.854;2023-06-22T05:43:21;21.50;99.90
18225;DHT22;9237;48.590;8.854;2023-06-22T05:45:48;21.30;99.90
18225;DHT22;9237;48.590;8.854;2023-06-22T05:48:15;21.30;99.90
18225;DHT22;9237;48.590;8.854;2023-06-22T05:50:42;21.20;99.90
18225;DHT22;9237;48.590;8.854;2023-06-22T05:53:08;21.20;99.90
18225;DHT22;9237;48.590;8.854;2023-06-22T05:55:35;21.40;99.90
18225;DHT22;9237;48.590;8.854;2023-06-22T05:58:03;21.70;99.90
18225;DHT22;9237;48.590;8.854;2023-06-22T06:00:30;21.90;99.90
18225;DHT22;9237;48.590;8.854;2023-06-22T06:02:57;22.10;99.90
18225;DHT22;9237;48.590;8.854;2023-06-22T06:05:28;22.10;99.90
18225;DHT22;9237;48.590;8.854;2023-06-22T06:07:55;22.30;99.90
18225;DHT22;9237;48.590;8.854;2023-06-22T06:10:22;22.50;99.90
18225;DHT22;9237;48.590;8.854;2023-06-22T06:12:49;22.70;99.90
18225;DHT22;9237;48.590;8.854;2023-06-22T06:15:17;22.90;99.90
18225;DHT22;9237;48.590;8.854;2023-06-22T06:17:48;23.00;99.90
18225;DHT22;9237;48.590;8.854;2023-06-22T06:20:15;23.30;99.90
18225;DHT22;9237;48.590;8.854;2023-06-22T06:22:42;23.60;99.90
18225;DHT22;9237;48.590;8.854;2023-06-22T06:25:09;23.60;99.90
18225;DHT22;9237;48.590;8.854;2023-06-22T06:27:41;23.30;99.90
18225;DHT22;9237;48.590;8.854;2023-06-22T06:30:09;23.60;99.90
18225;DHT22;9237;48.590;8.854;2023-06-22T06:32:37;24.00;99.90
18225;DHT22;9237;48.590;8.854;2023-06-22T06:35:05;24.20;99.90
18225;DHT22;9237;48.590;8.854;2023-06-22T06:37:35;24.50;99.90
18225;DHT22;9237;48.590;8.854;2023-06-22T06:40:02;24.60;99.90
18225;DHT22;9237;48.590;8.854;2023-06-22T06:42:31;24.80;99.90
18225;DHT22;9237;48.590;8.854;2023-06-22T06:44:57;24.90;99.90
18225;DHT22;9237;48.590;8.854;2023-06-22T06:47:24;25.10;99.90
18225;DHT22;9237;48.590;8.854;2023-06-22T06:49:52;24.80;99.90
18225;DHT22;9237;48.590;8.854;2023-06-22T06:52:19;24.30;99.90
18225;DHT22;9237;48.590;8.854;2023-06-22T06:54:46;24.80;99.90
18225;DHT22;9237;48.590;8.854;2023-06-22T06:57:13;25.10;99.90
18225;DHT22;9237;48.590;8.854;2023-06-22T06:59:41;24.90;99.90
18225;DHT22;9237;48.590;8.854;2023-06-22T07:02:08;25.40;99.90
18225;DHT22;9237;48.590;8.854;2023-06-22T07:04:34;25.80;99.90
18225;DHT22;9237;48.590;8.854;2023-06-22T07:07:03;25.50;99.90
18225;DHT22;9237;48.590;8.854;2023-06-22T07:09:29;25.50;99.90
18225;DHT22;9237;48.590;8.854;2023-06-22T07:11:56;26.00;99.90
18225;DHT22;9237;48.590;8.854;2023-06-22T07:14:23;26.40;99.90
18225;DHT22;9237;48.590;8.854;2023-06-22T07:16:50;26.40;99.90
18225;DHT22;9237;48.590;8.854;2023-06-22T07:19:24;26.70;99.90
18225;DHT22;9237;48.590;8.854;2023-06-22T07:21:51;27.30;99.90
18225;DHT22;9237;48.590;8.854;2023-06-22T07:24:20;27.50;99.90
18225;DHT22;9237;48.590;8.854;2023-06-22T07:26:47;27.60;99.90
18225;DHT22;9237;48.590;8.854;2023-06-22T07:29:15;27.70;99.90
18225;DHT22;9237;48.590;8.854;2023-06-22T07:31:42;27.70;99.90
18225;DHT22;9237;48.590;8.854;2023-06-22T07:34:09;28.10;99.90
18225;DHT22;9237;48.590;8.854;2023-06-22T07:36:36;28.40;99.90
18225;DHT22;9237;48.590;8.854;2023-06-22T07:39:02;28.50;99.90
18225;DHT22;9237;48.590;8.854;2023-06-22T07:41:31;28.60;99.90
18225;DHT22;9237;48.590;8.854;2023-06-22T07:43:57;28.70;99.90
18225;DHT22;9237;48.590;8.854;2023-06-22T07:46:24;28.90;99.90
18225;DHT22;9237;48.590;8.854;2023-06-22T07:48:51;29.00;99.90
18225;DHT22;9237;48.590;8.854;2023-06-22T07:51:18;29.20;99.90
18225;DHT22;9237;48.590;8.854;2023-06-22T07:53:45;29.40;99.90
18225;DHT22;9237;48.590;8.854;2023-06-22T07:56:12;29.60;99.90
18225;DHT22;9237;48.590;8.854;2023-06-22T07:58:40;29.80;99.90
18225;DHT22;9237;48.590;8.854;2023-06-22T08:01:07;29.50;99.90
18225;DHT22;9237;48.590;8.854;2023-06-22T08:03:33;29.70;99.90
18225;DHT22;9237;48.590;8.854;2023-06-22T08:06:00;29.40;99.90
18225;DHT22;9237;48.590;8.854;2023-06-22T08:08:27;29.10;99.90
18225;DHT22;9237;48.590;8.854;2023-06-22T08:10:54;29.10;99.90
18225;DHT22;9237;48.590;8.854;2023-06-22T08:13:21;29.10;99.90
18225;DHT22;9237;48.590;8.854;2023-06-22T08:15:49;29.30;99.90
18225;DHT22;9237;48.590;8.854;2023-06-22T08:18:16;29.40;99.40
18225;DHT22;9237;48.590;8.854;2023-06-22T08:20:43;28.80;99.10
18225;DHT22;9237;48.590;8.854;2023-06-22T08:23:09;28.60;99.90
18225;DHT22;9237;48.590;8.854;2023-06-22T08:25:36;28.10;99.90
18225;DHT22;9237;48.590;8.854;2023-06-22T08:28:04;27.80;99.90
18225;DHT22;9237;48.590;8.854;2023-06-22T08:30:30;28.20;99.90
18225;DHT22;9237;48.590;8.854;2023-06-22T08:32:59;28.50;99.90
18225;DHT22;9237;48.590;8.854;2023-06-22T08:35:25;28.50;99.40
18225;DHT22;9237;48.590;8.854;2023-06-22T08:37:52;28.60;98.70
18225;DHT22;9237;48.590;8.854;2023-06-22T08:40:20;28.40;98.60
18225;DHT22;9237;48.590;8.854;2023-06-22T08:42:47;29.00;99.00
18225;DHT22;9237;48.590;8.854;2023-06-22T08:45:15;29.40;97.30
18225;DHT22;9237;48.590;8.854;2023-06-22T08:47:42;30.10;96.40
18225;DHT22;9237;48.590;8.854;2023-06-22T08:50:11;30.10;94.80
18225;DHT22;9237;48.590;8.854;2023-06-22T08:52:40;30.10;95.00
18225;DHT22;9237;48.590;8.854;2023-06-22T08:55:08;29.80;95.40
18225;DHT22;9237;48.590;8.854;2023-06-22T08:57:35;30.20;95.60
18225;DHT22;9237;48.590;8.854;2023-06-22T09:00:05;30.80;95.90
18225;DHT22;9237;48.590;8.854;2023-06-22T09:02:40;31.00;94.00
18225;DHT22;9237;48.590;8.854;2023-06-22T09:05:08;31.90;93.00
18225;DHT22;9237;48.590;8.854;2023-06-22T09:07:36;31.30;93.20
18225;DHT22;9237;48.590;8.854;2023-06-22T09:10:03;31.80;92.50
18225;DHT22;9237;48.590;8.854;2023-06-22T09:12:31;32.30;91.50
18225;DHT22;9237;48.590;8.854;2023-06-22T09:14:58;32.80;90.90
18225;DHT22;9237;48.590;8.854;2023-06-22T09:17:26;32.90;90.60
18225;DHT22;9237;48.590;8.854;2023-06-22T09:19:53;33.10;90.20
18225;DHT22;9237;48.590;8.854;2023-06-22T09:22:20;33.20;86.70
18225;DHT22;9237;48.590;8.854;2023-06-22T09:24:49;33.20;86.20
18225;DHT22;9237;48.590;8.854;2023-06-22T09:27:15;33.30;85.40
18225;DHT22;9237;48.590;8.854;2023-06-22T09:29:42;33.50;85.40
18225;DHT22;9237;48.590;8.854;2023-06-22T09:32:09;33.50;83.80
18225;DHT22;9237;48.590;8.854;2023-06-22T09:34:36;33.20;84.80
18225;DHT22;9237;48.590;8.854;2023-06-22T09:37:03;32.60;83.40
18225;DHT22;9237;48.590;8.854;2023-06-22T09:39:30;32.70;84.00
18225;DHT22;9237;48.590;8.854;2023-06-22T09:41:59;32.60;85.60
18225;DHT22;9237;48.590;8.854;2023-06-22T09:44:26;32.00;83.10
18225;DHT22;9237;48.590;8.854;2023-06-22T09:46:53;31.90;84.40
18225;DHT22;9237;48.590;8.854;2023-06-22T09:49:20;32.40;85.50
18225;DHT22;9237;48.590;8.854;2023-06-22T09:51:47;32.60;82.40
18225;DHT22;9237;48.590;8.854;2023-06-22T09:54:15;32.40;83.20
18225;DHT22;9237;48.590;8.854;2023-06-22T09:56:41;32.50;84.60
18225;DHT22;9237;48.590;8.854;2023-06-22T09:59:10;31.80;81.30
18225;DHT22;9237;48.590;8.854;2023-06-22T10:01:36;31.70;84.40
18225;DHT22;9237;48.590;8.854;2023-06-22T10:04:03;31.30;83.80
18225;DHT22;9237;48.590;8.854;2023-06-22T10:06:30;31.40;86.40
18225;DHT22;9237;48.590;8.854;2023-06-22T10:08:57;31.80;84.50
18225;DHT22;9237;48.590;8.854;2023-06-22T10:11:24;31.90;83.10
18225;DHT22;9237;48.590;8.854;2023-06-22T10:13:54;32.10;83.50
18225;DHT22;9237;48.590;8.854;2023-06-22T10:16:29;31.80;83.90
18225;DHT22;9237;48.590;8.854;2023-06-22T10:18:56;32.40;83.60
18225;DHT22;9237;48.590;8.854;2023-06-22T10:21:23;33.50;81.80
18225;DHT22;9237;48.590;8.854;2023-06-22T10:23:50;33.80;78.70
18225;DHT22;9237;48.590;8.854;2023-06-22T10:26:16;34.50;77.90
18225;DHT22;9237;48.590;8.854;2023-06-22T10:28:43;34.70;77.20
18225;DHT22;9237;48.590;8.854;2023-06-22T10:31:10;34.10;77.30
18225;DHT22;9237;48.590;8.854;2023-06-22T10:33:38;33.80;76.90
18225;DHT22;9237;48.590;8.854;2023-06-22T10:36:07;33.90;76.00
18225;DHT22;9237;48.590;8.854;2023-06-22T10:38:33;34.10;77.30
18225;DHT22;9237;48.590;8.854;2023-06-22T10:41:00;34.30;75.90
18225;DHT22;9237;48.590;8.854;2023-06-22T10:43:28;34.70;76.10
18225;DHT22;9237;48.590;8.854;2023-06-22T10:45:54;34.40;73.40
18225;DHT22;9237;48.590;8.854;2023-06-22T10:48:21;34.50;75.20
18225;DHT22;9237;48.590;8.854;2023-06-22T10:50:49;34.30;74.30
18225;DHT22;9237;48.590;8.854;2023-06-22T10:53:16;33.90;75.40
18225;DHT22;9237;48.590;8.854;2023-06-22T10:55:43;33.60;75.50
18225;DHT22;9237;48.590;8.854;2023-06-22T10:58:09;33.60;74.10
18225;DHT22;9237;48.590;8.854;2023-06-22T11:00:36;34.00;77.20
18225;DHT22;9237;48.590;8.854;2023-06-22T11:03:03;33.80;74.30
18225;DHT22;9237;48.590;8.854;2023-06-22T11:05:30;33.60;75.50
18225;DHT22;9237;48.590;8.854;2023-06-22T11:07:58;33.50;75.70
18225;DHT22;9237;48.590;8.854;2023-06-22T11:10:25;33.30;76.40
18225;DHT22;9237;48.590;8.854;2023-06-22T11:12:52;33.10;76.60
18225;DHT22;9237;48.590;8.854;2023-06-22T11:15:21;33.30;79.80
18225;DHT22;9237;48.590;8.854;2023-06-22T11:17:47;33.60;75.30
18225;DHT22;9237;48.590;8.854;2023-06-22T11:20:14;34.20;75.70
18225;DHT22;9237;48.590;8.854;2023-06-22T11:22:41;34.40;73.80
18225;DHT22;9237;48.590;8.854;2023-06-22T11:25:10;34.60;73.70
18225;DHT22;9237;48.590;8.854;2023-06-22T11:27:38;34.40;73.80
18225;DHT22;9237;48.590;8.854;2023-06-22T11:30:06;34.30;73.30
18225;DHT22;9237;48.590;8.854;2023-06-22T11:32:33;34.00;72.20
18225;DHT22;9237;48.590;8.854;2023-06-22T11:35:00;34.00;71.70
18225;DHT22;9237;48.590;8.854;2023-06-22T11:37:27;33.70;75.60
18225;DHT22;9237;48.590;8.854;2023-06-22T11:39:54;33.40;77.00
18225;DHT22;9237;48.590;8.854;2023-06-22T11:42:22;33.10;76.80
18225;DHT22;9237;48.590;8.854;2023-06-22T11:44:50;32.70;78.40
18225;DHT22;9237;48.590;8.854;2023-06-22T11:47:17;32.30;80.50
18225;DHT22;9237;48.590;8.854;2023-06-22T11:49:44;32.10;80.70
18225;DHT22;9237;48.590;8.854;2023-06-22T11:52:11;32.00;81.40
18225;DHT22;9237;48.590;8.854;2023-06-22T11:54:37;31.80;82.20
18225;DHT22;9237;48.590;8.854;2023-06-22T11:57:05;31.50;83.00
18225;DHT22;9237;48.590;8.854;2023-06-22T11:59:33;31.60;83.80
18225;DHT22;9237;48.590;8.854;2023-06-22T12:01:59;31.50;83.80
18225;DHT22;9237;48.590;8.854;2023-06-22T12:04:26;31.50;83.90
18225;DHT22;9237;48.590;8.854;2023-06-22T12:06:53;31.50;82.60
18225;DHT22;9237;48.590;8.854;2023-06-22T12:09:20;31.40;83.80
18225;DHT22;9237;48.590;8.854;2023-06-22T12:11:46;31.20;84.00
18225;DHT22;9237;48.590;8.854;2023-06-22T12:14:13;31.00;84.30
18225;DHT22;9237;48.590;8.854;2023-06-22T12:16:41;30.80;84.60
18225;DHT22;9237;48.590;8.854;2023-06-22T12:19:09;30.80;85.20
18225;DHT22;9237;48.590;8.854;2023-06-22T12:21:37;30.70;85.70
18225;DHT22;9237;48.590;8.854;2023-06-22T12:24:04;30.80;85.20
18225;DHT22;9237;48.590;8.854;2023-06-22T12:26:31;30.80;86.30
18225;DHT22;9237;48.590;8.854;2023-06-22T12:28:58;31.20;86.10
18225;DHT22;9237;48.590;8.854;2023-06-22T12:31:25;31.50;84.20
18225;DHT22;9237;48.590;8.854;2023-06-22T12:33:53;31.90;83.40
18225;DHT22;9237;48.590;8.854;2023-06-22T12:36:20;31.70;83.70
18225;DHT22;9237;48.590;8.854;2023-06-22T12:38:46;31.70;83.70
18225;DHT22;9237;48.590;8.854;2023-06-22T12:41:13;31.30;84.10
18225;DHT22;9237;48.590;8.854;2023-06-22T12:43:40;31.10;86.00
18225;DHT22;9237;48.590;8.854;2023-06-22T12:46:07;30.80;85.30
18225;DHT22;9237;48.590;8.854;2023-06-22T12:48:34;30.60;87.00
18225;DHT22;9237;48.590;8.854;2023-06-22T12:51:08;30.60;86.80
18225;DHT22;9237;48.590;8.854;2023-06-22T12:53:35;30.50;87.50
18225;DHT22;9237;48.590;8.854;2023-06-22T12:56:02;30.40;88.30
18225;DHT22;9237;48.590;8.854;2023-06-22T12:58:29;30.60;89.50
18225;DHT22;9237;48.590;8.854;2023-06-22T13:00:56;30.60;87.40
18225;DHT22;9237;48.590;8.854;2023-06-22T13:03:22;30.60;89.40
18225;DHT22;9237;48.590;8.854;2023-06-22T13:05:51;30.60;86.90
18225;DHT22;9237;48.590;8.854;2023-06-22T13:08:19;30.60;83.90
18225;DHT22;9237;48.590;8.854;2023-06-22T13:10:46;30.50;85.70
18225;DHT22;9237;48.590;8.854;2023-06-22T13:13:12;30.60;84.30
18225;DHT22;9237;48.590;8.854;2023-06-22T13:15:39;30.60;83.80
18225;DHT22;9237;48.590;8.854;2023-06-22T13:18:06;30.70;84.50
18225;DHT22;9237;48.590;8.854;2023-06-22T13:20:33;30.70;85.10
18225;DHT22;9237;48.590;8.854;2023-06-22T13:23:00;30.80;85.70
18225;DHT22;9237;48.590;8.854;2023-06-22T13:25:28;31.10;84.20
18225;DHT22;9237;48.590;8.854;2023-06-22T13:27:55;31.20;84.70
18225;DHT22;9237;48.590;8.854;2023-06-22T13:30:22;30.90;85.20
18225;DHT22;9237;48.590;8.854;2023-06-22T13:32:48;31.10;86.10
18225;DHT22;9237;48.590;8.854;2023-06-22T13:35:15;31.20;86.20
18225;DHT22;9237;48.590;8.854;2023-06-22T13:37:42;31.10;86.70
18225;DHT22;9237;48.590;8.854;2023-06-22T13:40:09;31.00;85.70
18225;DHT22;9237;48.590;8.854;2023-06-22T13:42:37;31.00;85.90
18225;DHT22;9237;48.590;8.854;2023-06-22T13:45:05;31.10;86.40
18225;DHT22;9237;48.590;8.854;2023-06-22T13:47:33;31.20;88.40
18225;DHT22;9237;48.590;8.854;2023-06-22T13:49:59;31.70;87.80
18225;DHT22;9237;48.590;8.854;2023-06-22T13:52:26;32.20;86.50
18225;DHT22;9237;48.590;8.854;2023-06-22T13:54:53;32.60;83.20
18225;DHT22;9237;48.590;8.854;2023-06-22T13:57:20;33.40;82.30
18225;DHT22;9237;48.590;8.854;2023-06-22T13:59:48;34.20;79.60
18225;DHT22;9237;48.590;8.854;2023-06-22T14:02:15;34.90;79.30
18225;DHT22;9237;48.590;8.854;2023-06-22T14:04:41;35.40;74.50
18225;DHT22;9237;48.590;8.854;2023-06-22T14:07:08;34.90;71.70
18225;DHT22;9237;48.590;8.854;2023-06-22T14:09:35;34.20;63.70
18225;DHT22;9237;48.590;8.854;2023-06-22T14:12:05;33.70;61.60
18225;DHT22;9237;48.590;8.854;2023-06-22T14:14:33;33.50;59.70
18225;DHT22;9237;48.590;8.854;2023-06-22T14:17:01;32.80;59.70
18225;DHT22;9237;48.590;8.854;2023-06-22T14:19:28;32.60;59.30
18225;DHT22;9237;48.590;8.854;2023-06-22T14:21:55;32.50;59.70
18225;DHT22;9237;48.590;8.854;2023-06-22T14:24:22;32.20;59.60
18225;DHT22;9237;48.590;8.854;2023-06-22T14:26:49;32.40;59.60
18225;DHT22;9237;48.590;8.854;2023-06-22T14:29:16;32.80;56.00
18225;DHT22;9237;48.590;8.854;2023-06-22T14:31:45;32.60;56.70
18225;DHT22;9237;48.590;8.854;2023-06-22T14:34:13;32.10;56.80
18225;DHT22;9237;48.590;8.854;2023-06-22T14:36:40;32.00;58.70
18225;DHT22;9237;48.590;8.854;2023-06-22T14:39:07;32.60;56.90
18225;DHT22;9237;48.590;8.854;2023-06-22T14:41:34;32.60;56.80
18225;DHT22;9237;48.590;8.854;2023-06-22T14:44:01;33.00;56.20
18225;DHT22;9237;48.590;8.854;2023-06-22T14:46:28;33.30;56.00
18225;DHT22;9237;48.590;8.854;2023-06-22T14:48:55;33.40;56.40
18225;DHT22;9237;48.590;8.854;2023-06-22T14:51:23;33.50;55.70
18225;DHT22;9237;48.590;8.854;2023-06-22T14:53:49;33.00;53.70
18225;DHT22;9237;48.590;8.854;2023-06-22T14:56:16;32.30;54.80
18225;DHT22;9237;48.590;8.854;2023-06-22T14:58:43;31.80;56.40
18225;DHT22;9237;48.590;8.854;2023-06-22T15:01:11;31.60;56.80
18225;DHT22;9237;48.590;8.854;2023-06-22T15:03:38;31.70;57.90
18225;DHT22;9237;48.590;8.854;2023-06-22T15:06:05;32.10;55.80
18225;DHT22;9237;48.590;8.854;2023-06-22T15:08:34;31.80;56.30
18225;DHT22;9237;48.590;8.854;2023-06-22T15:11:01;31.50;56.90
18225;DHT22;9237;48.590;8.854;2023-06-22T15:13:29;31.50;57.40
18225;DHT22;9237;48.590;8.854;2023-06-22T15:15:58;31.50;58.80
18225;DHT22;9237;48.590;8.854;2023-06-22T15:18:24;31.40;58.00
18225;DHT22;9237;48.590;8.854;2023-06-22T15:20:51;31.40;58.80
18225;DHT22;9237;48.590;8.854;2023-06-22T15:23:18;31.00;58.50
18225;DHT22;9237;48.590;8.854;2023-06-22T15:25:47;30.70;59.90
18225;DHT22;9237;48.590;8.854;2023-06-22T15:28:14;30.70;60.40
18225;DHT22;9237;48.590;8.854;2023-06-22T15:30:42;30.60;61.20
18225;DHT22;9237;48.590;8.854;2023-06-22T15:33:09;30.50;60.60
18225;DHT22;9237;48.590;8.854;2023-06-22T15:35:35;30.30;60.40
18225;DHT22;9237;48.590;8.854;2023-06-22T15:38:02;30.10;62.10
18225;DHT22;9237;48.590;8.854;2023-06-22T15:40:29;30.00;62.70
18225;DHT22;9237;48.590;8.854;2023-06-22T15:42:58;29.80;62.90
18225;DHT22;9237;48.590;8.854;2023-06-22T15:45:25;29.80;62.90
18225;DHT22;9237;48.590;8.854;2023-06-22T15:47:51;29.80;64.10